sensor_id;sensor_type;location;lat;lon;timestamp;P1;durP1;ratioP1;P2;durP2;ratioP2
48596;SDS011;34382;43.160;24.148;2023-04-29T00:01:06;9.75;;;5.55;;
48596;SDS011;34382;43.160;24.148;2023-04-29T00:02:39;10.48;;;5.45;;
48596;SDS011;34382;43.160;24.148;2023-04-29T00:04:12;8.57;;;5.50;;
48596;SDS011;34382;43.160;24.148;2023-04-29T00:05:44;10.27;;;5.38;;
48596;SDS011;34382;43.160;24.148;2023-04-29T00:07:17;10.05;;;5.30;;
48596;SDS011;34382;43.160;24.148;2023-04-29T00:08:49;10.05;;;5.60;;
48596;SDS011;34382;43.160;24.148;2023-04-29T00:10:23;9.80;;;5.68;;
48596;SDS011;34382;43.160;24.148;2023-04-29T00:11:55;11.32;;;5.97;;
48596;SDS011;34382;43.160;24.148;2023-04-29T00:13:27;10.18;;;5.32;;
48596;SDS011;34382;43.160;24.148;2023-04-29T00:14:59;10.63;;;5.60;;
48596;SDS011;34382;43.160;24.148;2023-04-29T00:16:33;9.43;;;5.20;;
48596;SDS011;34382;43.160;24.148;2023-04-29T00:18:05;10.93;;;5.75;;
48596;SDS011;34382;43.160;24.148;2023-04-29T00:19:37;9.25;;;5.00;;
48596;SDS011;34382;43.160;24.148;2023-04-29T00:21:10;8.98;;;4.70;;
48596;SDS011;34382;43.160;24.148;2023-04-29T00:22:42;9.90;;;5.50;;
48596;SDS011;34382;43.160;24.148;2023-04-29T00:24:14;10.07;;;5.35;;
48596;SDS011;34382;43.160;24.148;2023-04-29T00:25:46;11.45;;;5.10;;
48596;SDS011;34382;43.160;24.148;2023-04-29T00:27:18;10.55;;;5.38;;
48596;SDS011;34382;43.160;24.148;2023-04-29T00:28:50;10.27;;;5.72;;
48596;SDS011;34382;43.160;24.148;2023-04-29T00:30:23;10.45;;;5.13;;
48596;SDS011;34382;43.160;24.148;2023-04-29T00:31:55;10.15;;;5.57;;
48596;SDS011;34382;43.160;24.148;2023-04-29T00:33:27;10.45;;;5.35;;
48596;SDS011;34382;43.160;24.148;2023-04-29T00:34:59;9.25;;;5.13;;
48596;SDS011;34382;43.160;24.148;2023-04-29T00:36:31;9.15;;;4.93;;
48596;SDS011;34382;43.160;24.148;2023-04-29T00:38:03;11.10;;;4.97;;
48596;SDS011;34382;43.160;24.148;2023-04-29T00:39:38;10.05;;;5.10;;
48596;SDS011;34382;43.160;24.148;2023-04-29T00:41:10;8.68;;;4.90;;
48596;SDS011;34382;43.160;24.148;2023-04-29T00:42:43;8.73;;;4.35;;
48596;SDS011;34382;43.160;24.148;2023-04-29T00:44:15;9.85;;;5.32;;
48596;SDS011;34382;43.160;24.148;2023-04-29T00:45:48;9.18;;;5.15;;
48596;SDS011;34382;43.160;24.148;2023-04-29T00:47:21;10.27;;;4.68;;
48596;SDS011;34382;43.160;24.148;2023-04-29T00:48:53;10.13;;;4.95;;
48596;SDS011;34382;43.160;24.148;2023-04-29T00:50:28;8.63;;;5.20;;
48596;SDS011;34382;43.160;24.148;2023-04-29T00:52:01;8.73;;;4.63;;
48596;SDS011;34382;43.160;24.148;2023-04-29T00:53:33;9.68;;;4.85;;
48596;SDS011;34382;43.160;24.148;2023-04-29T00:55:05;10.43;;;4.88;;
48596;SDS011;34382;43.160;24.148;2023-04-29T00:56:39;8.07;;;4.50;;
48596;SDS011;34382;43.160;24.148;2023-04-29T00:58:14;11.85;;;4.95;;
48596;SDS011;34382;43.160;24.148;2023-04-29T00:59:48;9.57;;;4.97;;
48596;SDS011;34382;43.160;24.148;2023-04-29T01:01:21;9.55;;;4.90;;
48596;SDS011;34382;43.160;24.148;2023-04-29T01:02:54;9.15;;;4.82;;
48596;SDS011;34382;43.160;24.148;2023-04-29T01:04:27;9.57;;;4.93;;
48596;SDS011;34382;43.160;24.148;2023-04-29T01:09:42;9.43;;;4.85;;
48596;SDS011;34382;43.160;24.148;2023-04-29T01:11:15;9.32;;;4.75;;
48596;SDS011;34382;43.160;24.148;2023-04-29T01:13:06;9.25;;;5.13;;
48596;SDS011;34382;43.160;24.148;2023-04-29T01:14:42;8.60;;;4.93;;
48596;SDS011;34382;43.160;24.148;2023-04-29T01:16:20;11.75;;;5.60;;
48596;SDS011;34382;43.160;24.148;2023-04-29T01:18:00;11.32;;;5.53;;
48596;SDS011;34382;43.160;24.148;2023-04-29T01:19:54;10.77;;;4.63;;
48596;SDS011;34382;43.160;24.148;2023-04-29T01:21:28;9.25;;;5.03;;
48596;SDS011;34382;43.160;24.148;2023-04-29T01:23:02;10.20;;;5.07;;
48596;SDS011;34382;43.160;24.148;2023-04-29T01:24:34;11.32;;;5.43;;
48596;SDS011;34382;43.160;24.148;2023-04-29T01:26:06;11.38;;;5.00;;
48596;SDS011;34382;43.160;24.148;2023-04-29T01:29:31;9.80;;;4.90;;
48596;SDS011;34382;43.160;24.148;2023-04-29T01:33:00;8.68;;;5.00;;
48596;SDS011;34382;43.160;24.148;2023-04-29T01:34:44;11.27;;;5.55;;
48596;SDS011;34382;43.160;24.148;2023-04-29T01:40:46;9.25;;;4.55;;
48596;SDS011;34382;43.160;24.148;2023-04-29T01:44:12;10.40;;;4.47;;
48596;SDS011;34382;43.160;24.148;2023-04-29T01:45:49;9.27;;;4.60;;
48596;SDS011;34382;43.160;24.148;2023-04-29T01:47:24;9.30;;;4.45;;
48596;SDS011;34382;43.160;24.148;2023-04-29T01:48:56;11.05;;;4.80;;
48596;SDS011;34382;43.160;24.148;2023-04-29T01:50:28;10.32;;;4.78;;
48596;SDS011;34382;43.160;24.148;2023-04-29T01:52:03;8.63;;;4.25;;
48596;SDS011;34382;43.160;24.148;2023-04-29T01:53:35;8.95;;;4.43;;
48596;SDS011;34382;43.160;24.148;2023-04-29T01:55:08;8.23;;;4.30;;
48596;SDS011;34382;43.160;24.148;2023-04-29T01:56:41;8.80;;;4.25;;
48596;SDS011;34382;43.160;24.148;2023-04-29T01:58:13;8.90;;;5.23;;
48596;SDS011;34382;43.160;24.148;2023-04-29T01:59:46;11.32;;;4.97;;
48596;SDS011;34382;43.160;24.148;2023-04-29T02:01:18;9.73;;;5.37;;
48596;SDS011;34382;43.160;24.148;2023-04-29T02:02:51;8.27;;;4.72;;
48596;SDS011;34382;43.160;24.148;2023-04-29T02:04:23;9.15;;;4.40;;
48596;SDS011;34382;43.160;24.148;2023-04-29T02:05:56;9.55;;;5.32;;
48596;SDS011;34382;43.160;24.148;2023-04-29T02:07:29;8.70;;;4.78;;
48596;SDS011;34382;43.160;24.148;2023-04-29T02:09:01;9.95;;;4.80;;
48596;SDS011;34382;43.160;24.148;2023-04-29T02:10:33;9.85;;;5.32;;
48596;SDS011;34382;43.160;24.148;2023-04-29T02:12:05;8.80;;;4.75;;
48596;SDS011;34382;43.160;24.148;2023-04-29T02:13:38;10.07;;;4.78;;
48596;SDS011;34382;43.160;24.148;2023-04-29T02:15:11;22.42;;;9.32;;
48596;SDS011;34382;43.160;24.148;2023-04-29T02:16:43;31.30;;;13.18;;
48596;SDS011;34382;43.160;24.148;2023-04-29T02:18:16;27.08;;;10.23;;
48596;SDS011;34382;43.160;24.148;2023-04-29T02:19:48;30.67;;;11.75;;
48596;SDS011;34382;43.160;24.148;2023-04-29T02:21:21;18.45;;;8.48;;
48596;SDS011;34382;43.160;24.148;2023-04-29T02:22:53;15.85;;;6.22;;
48596;SDS011;34382;43.160;24.148;2023-04-29T02:24:25;13.30;;;5.80;;
48596;SDS011;34382;43.160;24.148;2023-04-29T02:25:58;11.60;;;5.50;;
48596;SDS011;34382;43.160;24.148;2023-04-29T02:27:30;8.80;;;4.28;;
48596;SDS011;34382;43.160;24.148;2023-04-29T02:29:02;9.18;;;4.80;;
48596;SDS011;34382;43.160;24.148;2023-04-29T02:30:34;8.35;;;4.47;;
48596;SDS011;34382;43.160;24.148;2023-04-29T02:32:06;9.75;;;4.55;;
48596;SDS011;34382;43.160;24.148;2023-04-29T02:33:38;8.13;;;3.95;;
48596;SDS011;34382;43.160;24.148;2023-04-29T02:35:11;8.35;;;4.05;;
48596;SDS011;34382;43.160;24.148;2023-04-29T02:36:44;8.82;;;4.35;;
48596;SDS011;34382;43.160;24.148;2023-04-29T02:38:16;7.60;;;3.72;;
48596;SDS011;34382;43.160;24.148;2023-04-29T02:39:48;7.72;;;4.10;;
48596;SDS011;34382;43.160;24.148;2023-04-29T02:41:21;8.30;;;4.13;;
48596;SDS011;34382;43.160;24.148;2023-04-29T02:42:53;8.52;;;4.50;;
48596;SDS011;34382;43.160;24.148;2023-04-29T02:44:25;9.18;;;4.32;;
48596;SDS011;34382;43.160;24.148;2023-04-29T02:45:57;9.55;;;4.03;;
48596;SDS011;34382;43.160;24.148;2023-04-29T02:47:31;9.40;;;4.45;;
48596;SDS011;34382;43.160;24.148;2023-04-29T02:49:03;9.57;;;4.55;;
48596;SDS011;34382;43.160;24.148;2023-04-29T02:50:36;8.77;;;4.40;;
48596;SDS011;34382;43.160;24.148;2023-04-29T02:52:08;9.82;;;4.43;;
48596;SDS011;34382;43.160;24.148;2023-04-29T02:53:40;9.35;;;4.40;;
48596;SDS011;34382;43.160;24.148;2023-04-29T02:55:12;8.48;;;4.25;;
48596;SDS011;34382;43.160;24.148;2023-04-29T02:56:44;8.88;;;4.43;;
48596;SDS011;34382;43.160;24.148;2023-04-29T02:58:16;9.52;;;4.30;;
48596;SDS011;34382;43.160;24.148;2023-04-29T02:59:49;8.77;;;3.85;;
48596;SDS011;34382;43.160;24.148;2023-04-29T03:01:22;8.25;;;4.10;;
48596;SDS011;34382;43.160;24.148;2023-04-29T03:02:54;11.43;;;4.88;;
48596;SDS011;34382;43.160;24.148;2023-04-29T03:04:27;9.27;;;5.07;;
48596;SDS011;34382;43.160;24.148;2023-04-29T03:05:59;7.40;;;3.92;;
48596;SDS011;34382;43.160;24.148;2023-04-29T03:07:31;7.93;;;3.95;;
48596;SDS011;34382;43.160;24.148;2023-04-29T03:09:04;9.18;;;4.68;;
48596;SDS011;34382;43.160;24.148;2023-04-29T03:10:36;7.35;;;4.03;;
48596;SDS011;34382;43.160;24.148;2023-04-29T03:12:12;8.73;;;3.92;;
48596;SDS011;34382;43.160;24.148;2023-04-29T03:13:44;8.73;;;4.18;;
48596;SDS011;34382;43.160;24.148;2023-04-29T03:15:16;10.53;;;4.67;;
48596;SDS011;34382;43.160;24.148;2023-04-29T03:16:48;9.68;;;4.30;;
48596;SDS011;34382;43.160;24.148;2023-04-29T03:18:21;8.07;;;4.00;;
48596;SDS011;34382;43.160;24.148;2023-04-29T03:19:53;9.20;;;4.20;;
48596;SDS011;34382;43.160;24.148;2023-04-29T03:21:25;8.60;;;4.28;;
48596;SDS011;34382;43.160;24.148;2023-04-29T03:22:58;7.93;;;4.45;;
48596;SDS011;34382;43.160;24.148;2023-04-29T03:24:31;7.32;;;3.95;;
48596;SDS011;34382;43.160;24.148;2023-04-29T03:26:03;8.38;;;4.38;;
48596;SDS011;34382;43.160;24.148;2023-04-29T03:27:36;7.93;;;4.37;;
48596;SDS011;34382;43.160;24.148;2023-04-29T03:29:08;10.23;;;4.22;;
48596;SDS011;34382;43.160;24.148;2023-04-29T03:30:40;9.15;;;3.90;;
48596;SDS011;34382;43.160;24.148;2023-04-29T03:32:12;7.45;;;3.97;;
48596;SDS011;34382;43.160;24.148;2023-04-29T03:33:45;10.80;;;4.30;;
48596;SDS011;34382;43.160;24.148;2023-04-29T03:35:17;9.27;;;4.32;;
48596;SDS011;34382;43.160;24.148;2023-04-29T03:36:49;7.70;;;3.92;;
48596;SDS011;34382;43.160;24.148;2023-04-29T03:38:24;9.05;;;4.28;;
48596;SDS011;34382;43.160;24.148;2023-04-29T03:40:03;9.10;;;4.25;;
48596;SDS011;34382;43.160;24.148;2023-04-29T03:41:37;7.35;;;3.85;;
48596;SDS011;34382;43.160;24.148;2023-04-29T03:43:09;10.43;;;4.78;;
48596;SDS011;34382;43.160;24.148;2023-04-29T03:44:41;9.82;;;4.72;;
48596;SDS011;34382;43.160;24.148;2023-04-29T03:46:13;8.95;;;4.25;;
48596;SDS011;34382;43.160;24.148;2023-04-29T03:47:45;8.98;;;4.05;;
48596;SDS011;34382;43.160;24.148;2023-04-29T03:49:18;8.05;;;4.22;;
48596;SDS011;34382;43.160;24.148;2023-04-29T03:50:50;9.13;;;4.25;;
48596;SDS011;34382;43.160;24.148;2023-04-29T03:52:22;8.20;;;4.18;;
48596;SDS011;34382;43.160;24.148;2023-04-29T03:53:54;9.48;;;4.38;;
48596;SDS011;34382;43.160;24.148;2023-04-29T03:55:28;8.27;;;4.07;;
48596;SDS011;34382;43.160;24.148;2023-04-29T03:57:00;8.98;;;4.47;;
48596;SDS011;34382;43.160;24.148;2023-04-29T03:58:35;8.95;;;4.10;;
48596;SDS011;34382;43.160;24.148;2023-04-29T04:00:07;8.23;;;4.00;;
48596;SDS011;34382;43.160;24.148;2023-04-29T04:01:40;8.95;;;4.47;;
48596;SDS011;34382;43.160;24.148;2023-04-29T04:03:12;7.30;;;3.67;;
48596;SDS011;34382;43.160;24.148;2023-04-29T04:04:45;8.75;;;4.32;;
48596;SDS011;34382;43.160;24.148;2023-04-29T04:06:17;7.97;;;4.05;;
48596;SDS011;34382;43.160;24.148;2023-04-29T04:07:50;8.30;;;4.22;;
48596;SDS011;34382;43.160;24.148;2023-04-29T04:09:23;7.90;;;4.20;;
48596;SDS011;34382;43.160;24.148;2023-04-29T04:10:55;8.75;;;4.25;;
48596;SDS011;34382;43.160;24.148;2023-04-29T04:12:33;8.85;;;4.70;;
48596;SDS011;34382;43.160;24.148;2023-04-29T04:14:05;9.00;;;4.32;;
48596;SDS011;34382;43.160;24.148;2023-04-29T04:15:38;10.00;;;4.22;;
48596;SDS011;34382;43.160;24.148;2023-04-29T04:17:10;9.15;;;4.65;;
48596;SDS011;34382;43.160;24.148;2023-04-29T04:18:42;10.38;;;5.93;;
48596;SDS011;34382;43.160;24.148;2023-04-29T04:20:14;11.25;;;6.93;;
48596;SDS011;34382;43.160;24.148;2023-04-29T04:21:46;11.65;;;6.25;;
48596;SDS011;34382;43.160;24.148;2023-04-29T04:23:18;9.45;;;5.40;;
48596;SDS011;34382;43.160;24.148;2023-04-29T04:24:53;10.20;;;5.93;;
48596;SDS011;34382;43.160;24.148;2023-04-29T04:26:25;11.32;;;6.07;;
48596;SDS011;34382;43.160;24.148;2023-04-29T04:27:57;11.27;;;5.90;;
48596;SDS011;34382;43.160;24.148;2023-04-29T04:29:30;10.07;;;5.80;;
48596;SDS011;34382;43.160;24.148;2023-04-29T04:31:02;11.25;;;6.20;;
48596;SDS011;34382;43.160;24.148;2023-04-29T04:32:36;12.52;;;6.50;;
48596;SDS011;34382;43.160;24.148;2023-04-29T04:34:09;14.50;;;6.50;;
48596;SDS011;34382;43.160;24.148;2023-04-29T04:35:42;10.00;;;5.47;;
48596;SDS011;34382;43.160;24.148;2023-04-29T04:37:14;9.27;;;5.00;;
48596;SDS011;34382;43.160;24.148;2023-04-29T04:38:47;9.93;;;5.30;;
48596;SDS011;34382;43.160;24.148;2023-04-29T04:40:19;7.90;;;4.05;;
48596;SDS011;34382;43.160;24.148;2023-04-29T04:41:51;7.75;;;3.92;;
48596;SDS011;34382;43.160;24.148;2023-04-29T04:43:23;8.85;;;4.30;;
48596;SDS011;34382;43.160;24.148;2023-04-29T04:44:56;7.40;;;3.90;;
48596;SDS011;34382;43.160;24.148;2023-04-29T04:46:28;11.10;;;4.63;;
48596;SDS011;34382;43.160;24.148;2023-04-29T04:48:00;8.18;;;3.92;;
48596;SDS011;34382;43.160;24.148;2023-04-29T04:49:32;9.18;;;4.07;;
48596;SDS011;34382;43.160;24.148;2023-04-29T04:51:08;8.90;;;4.30;;
48596;SDS011;34382;43.160;24.148;2023-04-29T04:52:41;10.90;;;4.50;;
48596;SDS011;34382;43.160;24.148;2023-04-29T04:54:13;9.60;;;4.70;;
48596;SDS011;34382;43.160;24.148;2023-04-29T04:55:45;8.85;;;4.30;;
48596;SDS011;34382;43.160;24.148;2023-04-29T04:57:18;10.48;;;4.15;;
48596;SDS011;34382;43.160;24.148;2023-04-29T04:58:50;9.18;;;4.25;;
48596;SDS011;34382;43.160;24.148;2023-04-29T05:00:22;9.93;;;4.80;;
48596;SDS011;34382;43.160;24.148;2023-04-29T05:01:54;10.07;;;4.38;;
48596;SDS011;34382;43.160;24.148;2023-04-29T05:03:26;10.15;;;5.15;;
48596;SDS011;34382;43.160;24.148;2023-04-29T05:04:59;10.90;;;4.85;;
48596;SDS011;34382;43.160;24.148;2023-04-29T05:06:31;10.05;;;4.97;;
48596;SDS011;34382;43.160;24.148;2023-04-29T05:08:03;11.63;;;5.07;;
48596;SDS011;34382;43.160;24.148;2023-04-29T05:09:36;8.90;;;4.50;;
48596;SDS011;34382;43.160;24.148;2023-04-29T05:11:18;11.35;;;4.80;;
48596;SDS011;34382;43.160;24.148;2023-04-29T05:12:51;8.38;;;4.72;;
48596;SDS011;34382;43.160;24.148;2023-04-29T05:14:24;9.88;;;4.30;;
48596;SDS011;34382;43.160;24.148;2023-04-29T05:15:57;11.85;;;5.85;;
48596;SDS011;34382;43.160;24.148;2023-04-29T05:17:29;10.48;;;4.70;;
48596;SDS011;34382;43.160;24.148;2023-04-29T05:19:01;10.00;;;4.75;;
48596;SDS011;34382;43.160;24.148;2023-04-29T05:20:33;8.40;;;4.25;;
48596;SDS011;34382;43.160;24.148;2023-04-29T05:22:05;9.90;;;4.07;;
48596;SDS011;34382;43.160;24.148;2023-04-29T05:23:37;10.13;;;4.63;;
48596;SDS011;34382;43.160;24.148;2023-04-29T05:25:10;9.55;;;4.63;;
48596;SDS011;34382;43.160;24.148;2023-04-29T05:26:42;9.98;;;4.30;;
48596;SDS011;34382;43.160;24.148;2023-04-29T05:28:14;9.15;;;4.55;;
48596;SDS011;34382;43.160;24.148;2023-04-29T05:29:46;8.85;;;4.93;;
48596;SDS011;34382;43.160;24.148;2023-04-29T05:31:19;9.10;;;4.28;;
48596;SDS011;34382;43.160;24.148;2023-04-29T05:32:52;10.30;;;3.95;;
48596;SDS011;34382;43.160;24.148;2023-04-29T05:34:24;8.23;;;4.18;;
48596;SDS011;34382;43.160;24.148;2023-04-29T05:35:57;8.15;;;4.25;;
48596;SDS011;34382;43.160;24.148;2023-04-29T05:37:29;7.57;;;4.10;;
48596;SDS011;34382;43.160;24.148;2023-04-29T05:40:35;9.98;;;4.32;;
48596;SDS011;34382;43.160;24.148;2023-04-29T05:42:07;9.90;;;4.13;;
48596;SDS011;34382;43.160;24.148;2023-04-29T05:43:39;8.95;;;4.15;;
48596;SDS011;34382;43.160;24.148;2023-04-29T05:45:11;9.93;;;4.15;;
48596;SDS011;34382;43.160;24.148;2023-04-29T05:46:43;8.68;;;4.47;;
48596;SDS011;34382;43.160;24.148;2023-04-29T05:48:16;9.55;;;4.57;;
48596;SDS011;34382;43.160;24.148;2023-04-29T05:49:49;10.00;;;5.28;;
48596;SDS011;34382;43.160;24.148;2023-04-29T05:51:21;9.00;;;4.70;;
48596;SDS011;34382;43.160;24.148;2023-04-29T05:52:53;9.32;;;4.20;;
48596;SDS011;34382;43.160;24.148;2023-04-29T05:54:27;9.38;;;4.82;;
48596;SDS011;34382;43.160;24.148;2023-04-29T05:55:59;10.68;;;4.90;;
48596;SDS011;34382;43.160;24.148;2023-04-29T05:57:31;7.45;;;4.20;;
48596;SDS011;34382;43.160;24.148;2023-04-29T05:59:03;8.00;;;3.90;;
48596;SDS011;34382;43.160;24.148;2023-04-29T06:00:35;8.73;;;3.97;;
48596;SDS011;34382;43.160;24.148;2023-04-29T06:02:08;10.27;;;4.10;;
48596;SDS011;34382;43.160;24.148;2023-04-29T06:03:41;8.32;;;3.88;;
48596;SDS011;34382;43.160;24.148;2023-04-29T06:05:14;8.48;;;4.05;;
48596;SDS011;34382;43.160;24.148;2023-04-29T06:06:47;9.03;;;4.60;;
48596;SDS011;34382;43.160;24.148;2023-04-29T06:08:19;8.13;;;3.92;;
48596;SDS011;34382;43.160;24.148;2023-04-29T06:09:51;9.13;;;3.85;;
48596;SDS011;34382;43.160;24.148;2023-04-29T06:11:24;7.93;;;4.13;;
48596;SDS011;34382;43.160;24.148;2023-04-29T06:12:57;9.02;;;4.18;;
48596;SDS011;34382;43.160;24.148;2023-04-29T06:14:29;8.77;;;3.85;;
48596;SDS011;34382;43.160;24.148;2023-04-29T06:16:01;7.65;;;3.67;;
48596;SDS011;34382;43.160;24.148;2023-04-29T06:17:34;11.40;;;4.23;;
48596;SDS011;34382;43.160;24.148;2023-04-29T06:19:06;8.57;;;3.85;;
48596;SDS011;34382;43.160;24.148;2023-04-29T06:20:38;9.55;;;3.67;;
48596;SDS011;34382;43.160;24.148;2023-04-29T06:22:10;7.93;;;4.03;;
48596;SDS011;34382;43.160;24.148;2023-04-29T06:23:43;8.50;;;3.90;;
48596;SDS011;34382;43.160;24.148;2023-04-29T06:25:18;8.30;;;3.58;;
48596;SDS011;34382;43.160;24.148;2023-04-29T06:26:50;8.95;;;3.70;;
48596;SDS011;34382;43.160;24.148;2023-04-29T06:28:23;10.00;;;3.50;;
48596;SDS011;34382;43.160;24.148;2023-04-29T06:29:55;7.68;;;3.40;;
48596;SDS011;34382;43.160;24.148;2023-04-29T06:31:27;9.02;;;3.55;;
48596;SDS011;34382;43.160;24.148;2023-04-29T06:32:59;8.43;;;3.63;;
48596;SDS011;34382;43.160;24.148;2023-04-29T06:34:32;8.88;;;3.53;;
48596;SDS011;34382;43.160;24.148;2023-04-29T06:36:04;8.95;;;3.63;;
48596;SDS011;34382;43.160;24.148;2023-04-29T06:37:36;8.13;;;3.78;;
48596;SDS011;34382;43.160;24.148;2023-04-29T06:39:09;7.32;;;3.60;;
48596;SDS011;34382;43.160;24.148;2023-04-29T06:40:41;8.48;;;3.88;;
48596;SDS011;34382;43.160;24.148;2023-04-29T06:43:46;9.77;;;4.38;;
48596;SDS011;34382;43.160;24.148;2023-04-29T06:45:19;8.18;;;3.78;;
48596;SDS011;34382;43.160;24.148;2023-04-29T06:46:51;10.48;;;3.78;;
48596;SDS011;34382;43.160;24.148;2023-04-29T06:48:23;8.02;;;3.53;;
48596;SDS011;34382;43.160;24.148;2023-04-29T06:49:56;8.90;;;3.53;;
48596;SDS011;34382;43.160;24.148;2023-04-29T06:51:28;9.43;;;3.70;;
48596;SDS011;34382;43.160;24.148;2023-04-29T06:53:00;8.00;;;3.35;;
48596;SDS011;34382;43.160;24.148;2023-04-29T06:54:32;9.70;;;4.15;;
48596;SDS011;34382;43.160;24.148;2023-04-29T06:56:05;8.52;;;3.40;;
48596;SDS011;34382;43.160;24.148;2023-04-29T06:57:37;7.60;;;3.35;;
48596;SDS011;34382;43.160;24.148;2023-04-29T06:59:09;7.10;;;3.38;;
48596;SDS011;34382;43.160;24.148;2023-04-29T07:00:43;6.97;;;3.47;;
48596;SDS011;34382;43.160;24.148;2023-04-29T07:02:17;6.38;;;3.13;;
48596;SDS011;34382;43.160;24.148;2023-04-29T07:03:49;13.18;;;4.35;;
48596;SDS011;34382;43.160;24.148;2023-04-29T07:05:22;9.75;;;3.72;;
48596;SDS011;34382;43.160;24.148;2023-04-29T07:06:54;8.75;;;3.75;;
48596;SDS011;34382;43.160;24.148;2023-04-29T07:08:26;8.25;;;3.63;;
48596;SDS011;34382;43.160;24.148;2023-04-29T07:09:59;7.47;;;3.55;;
48596;SDS011;34382;43.160;24.148;2023-04-29T07:11:31;10.35;;;3.33;;
48596;SDS011;34382;43.160;24.148;2023-04-29T07:13:04;7.90;;;3.60;;
48596;SDS011;34382;43.160;24.148;2023-04-29T07:14:36;8.60;;;3.75;;
48596;SDS011;34382;43.160;24.148;2023-04-29T07:16:17;7.18;;;3.20;;
48596;SDS011;34382;43.160;24.148;2023-04-29T07:17:52;8.27;;;3.53;;
48596;SDS011;34382;43.160;24.148;2023-04-29T07:19:24;8.60;;;3.38;;
48596;SDS011;34382;43.160;24.148;2023-04-29T07:21:00;9.82;;;3.60;;
48596;SDS011;34382;43.160;24.148;2023-04-29T07:22:32;8.30;;;4.00;;
48596;SDS011;34382;43.160;24.148;2023-04-29T07:24:05;7.93;;;3.65;;
48596;SDS011;34382;43.160;24.148;2023-04-29T07:25:37;10.13;;;3.37;;
48596;SDS011;34382;43.160;24.148;2023-04-29T07:27:09;8.25;;;3.03;;
48596;SDS011;34382;43.160;24.148;2023-04-29T07:28:42;6.13;;;2.70;;
48596;SDS011;34382;43.160;24.148;2023-04-29T07:30:15;7.20;;;2.75;;
48596;SDS011;34382;43.160;24.148;2023-04-29T07:31:47;7.25;;;2.85;;
48596;SDS011;34382;43.160;24.148;2023-04-29T07:33:19;7.43;;;3.35;;
48596;SDS011;34382;43.160;24.148;2023-04-29T07:34:52;8.48;;;3.22;;
48596;SDS011;34382;43.160;24.148;2023-04-29T07:36:24;7.15;;;2.78;;
48596;SDS011;34382;43.160;24.148;2023-04-29T07:37:58;11.20;;;3.65;;
48596;SDS011;34382;43.160;24.148;2023-04-29T07:39:31;6.47;;;3.00;;
48596;SDS011;34382;43.160;24.148;2023-04-29T07:41:03;6.60;;;2.90;;
48596;SDS011;34382;43.160;24.148;2023-04-29T07:42:35;7.18;;;2.78;;
48596;SDS011;34382;43.160;24.148;2023-04-29T07:44:08;7.68;;;2.92;;
48596;SDS011;34382;43.160;24.148;2023-04-29T07:45:40;5.82;;;2.72;;
48596;SDS011;34382;43.160;24.148;2023-04-29T07:47:12;6.18;;;3.10;;
48596;SDS011;34382;43.160;24.148;2023-04-29T07:48:44;6.68;;;2.70;;
48596;SDS011;34382;43.160;24.148;2023-04-29T07:50:17;6.90;;;2.92;;
48596;SDS011;34382;43.160;24.148;2023-04-29T07:51:49;6.07;;;2.55;;
48596;SDS011;34382;43.160;24.148;2023-04-29T07:53:21;6.65;;;2.88;;
48596;SDS011;34382;43.160;24.148;2023-04-29T07:54:54;8.57;;;3.33;;
48596;SDS011;34382;43.160;24.148;2023-04-29T07:56:29;7.57;;;2.50;;
48596;SDS011;34382;43.160;24.148;2023-04-29T07:58:02;7.88;;;2.60;;
48596;SDS011;34382;43.160;24.148;2023-04-29T07:59:34;6.35;;;2.60;;
48596;SDS011;34382;43.160;24.148;2023-04-29T08:01:10;7.00;;;2.60;;
48596;SDS011;34382;43.160;24.148;2023-04-29T08:02:42;6.45;;;2.60;;
48596;SDS011;34382;43.160;24.148;2023-04-29T08:04:15;7.53;;;2.67;;
48596;SDS011;34382;43.160;24.148;2023-04-29T08:05:48;6.10;;;2.70;;
48596;SDS011;34382;43.160;24.148;2023-04-29T08:07:21;6.63;;;2.60;;
48596;SDS011;34382;43.160;24.148;2023-04-29T08:08:56;7.40;;;2.83;;
48596;SDS011;34382;43.160;24.148;2023-04-29T08:10:28;7.53;;;2.90;;
48596;SDS011;34382;43.160;24.148;2023-04-29T08:12:01;7.15;;;2.65;;
48596;SDS011;34382;43.160;24.148;2023-04-29T08:13:33;7.20;;;2.80;;
48596;SDS011;34382;43.160;24.148;2023-04-29T08:15:06;7.50;;;3.10;;
48596;SDS011;34382;43.160;24.148;2023-04-29T08:16:40;7.28;;;2.88;;
48596;SDS011;34382;43.160;24.148;2023-04-29T08:18:12;7.60;;;3.00;;
48596;SDS011;34382;43.160;24.148;2023-04-29T08:19:44;6.28;;;3.00;;
48596;SDS011;34382;43.160;24.148;2023-04-29T08:21:17;6.43;;;2.80;;
48596;SDS011;34382;43.160;24.148;2023-04-29T08:22:50;5.13;;;2.45;;
48596;SDS011;34382;43.160;24.148;2023-04-29T08:24:22;7.57;;;2.70;;
48596;SDS011;34382;43.160;24.148;2023-04-29T08:25:54;6.78;;;2.75;;
48596;SDS011;34382;43.160;24.148;2023-04-29T08:27:26;7.22;;;2.80;;
48596;SDS011;34382;43.160;24.148;2023-04-29T08:28:59;6.93;;;2.80;;
48596;SDS011;34382;43.160;24.148;2023-04-29T08:30:31;5.45;;;2.50;;
48596;SDS011;34382;43.160;24.148;2023-04-29T08:32:04;6.07;;;2.67;;
48596;SDS011;34382;43.160;24.148;2023-04-29T08:33:37;6.43;;;2.70;;
48596;SDS011;34382;43.160;24.148;2023-04-29T08:35:09;5.10;;;2.40;;
48596;SDS011;34382;43.160;24.148;2023-04-29T08:36:41;7.25;;;2.92;;
48596;SDS011;34382;43.160;24.148;2023-04-29T08:38:14;6.85;;;2.60;;
48596;SDS011;34382;43.160;24.148;2023-04-29T08:39:46;8.40;;;3.08;;
48596;SDS011;34382;43.160;24.148;2023-04-29T08:41:18;6.25;;;3.00;;
48596;SDS011;34382;43.160;24.148;2023-04-29T08:42:51;6.47;;;2.42;;
48596;SDS011;34382;43.160;24.148;2023-04-29T08:44:27;5.50;;;2.33;;
48596;SDS011;34382;43.160;24.148;2023-04-29T08:46:01;7.50;;;2.75;;
48596;SDS011;34382;43.160;24.148;2023-04-29T08:47:33;6.18;;;2.55;;
48596;SDS011;34382;43.160;24.148;2023-04-29T08:49:06;6.22;;;2.42;;
48596;SDS011;34382;43.160;24.148;2023-04-29T08:50:39;8.70;;;2.80;;
48596;SDS011;34382;43.160;24.148;2023-04-29T08:52:12;5.97;;;2.50;;
48596;SDS011;34382;43.160;24.148;2023-04-29T08:53:44;6.82;;;2.70;;
48596;SDS011;34382;43.160;24.148;2023-04-29T08:55:17;5.55;;;2.40;;
48596;SDS011;34382;43.160;24.148;2023-04-29T08:56:49;5.70;;;2.33;;
48596;SDS011;34382;43.160;24.148;2023-04-29T08:58:22;6.72;;;2.78;;
48596;SDS011;34382;43.160;24.148;2023-04-29T08:59:58;6.07;;;2.60;;
48596;SDS011;34382;43.160;24.148;2023-04-29T09:01:31;6.18;;;2.45;;
48596;SDS011;34382;43.160;24.148;2023-04-29T09:03:52;6.03;;;2.95;;
48596;SDS011;34382;43.160;24.148;2023-04-29T09:05:09;5.93;;;2.50;;
48596;SDS011;34382;43.160;24.148;2023-04-29T09:06:42;8.00;;;2.72;;
48596;SDS011;34382;43.160;24.148;2023-04-29T09:08:14;7.00;;;2.60;;
48596;SDS011;34382;43.160;24.148;2023-04-29T09:09:48;8.77;;;2.80;;
48596;SDS011;34382;43.160;24.148;2023-04-29T09:11:20;6.38;;;2.60;;
48596;SDS011;34382;43.160;24.148;2023-04-29T09:12:56;6.93;;;2.40;;
48596;SDS011;34382;43.160;24.148;2023-04-29T09:14:29;8.35;;;2.60;;
48596;SDS011;34382;43.160;24.148;2023-04-29T09:20:42;7.75;;;2.80;;
48596;SDS011;34382;43.160;24.148;2023-04-29T09:22:14;8.18;;;2.67;;
48596;SDS011;34382;43.160;24.148;2023-04-29T09:23:48;6.00;;;2.63;;
48596;SDS011;34382;43.160;24.148;2023-04-29T09:25:26;7.43;;;2.55;;
48596;SDS011;34382;43.160;24.148;2023-04-29T09:26:58;5.72;;;2.58;;
48596;SDS011;34382;43.160;24.148;2023-04-29T09:28:31;7.93;;;2.40;;
48596;SDS011;34382;43.160;24.148;2023-04-29T09:30:04;6.68;;;2.30;;
48596;SDS011;34382;43.160;24.148;2023-04-29T09:31:37;5.95;;;2.50;;